Time;durP1;ratioP1;P1;durP2;ratioP2;P2;SDS_P1;SDS_P2;PMS_P1;PMS_P2;Temp;Humidity;BMP_temperature;BMP_pressure;BME280_temperature;BME280_humidity;BME280_pressure;Samples;Min_cycle;Max_cycle;Signal;HPM_P1;HPM_P2
2022/01/22 00:02:03;;;;;;;3.97;3.57;;;;;;;-1.31;63.95;100012.22;5093722;28;20449;-64
2022/01/22 00:04:30;;;;;;;7.80;4.00;;;;;;;-1.34;64.32;100022.84;5094019;28;20542;-64
2022/01/22 00:07:01;;;;;;;3.57;3.33;;;;;;;-1.24;63.76;100010.81;5093919;28;20533;-64
2022/01/22 00:09:35;;;;;;;7.13;3.10;;;;;;;-1.31;64.46;100012.22;5094337;28;20433;-64
2022/01/22 00:12:01;;;;;;;5.53;3.60;;;;;;;-1.26;64.15;100004.91;5094139;28;20815;-63
2022/01/22 00:14:27;;;;;;;5.30;3.37;;;;;;;-1.25;63.55;100007.41;5093677;28;20498;-64
2022/01/22 00:16:57;;;;;;;4.03;3.70;;;;;;;-1.27;62.55;100008.41;5093979;28;20437;-64
2022/01/22 00:19:24;;;;;;;4.63;3.50;;;;;;;-1.15;62.58;100017.97;5094747;28;20191;-64
2022/01/22 00:21:51;;;;;;;3.73;3.43;;;;;;;-1.21;62.39;100013.22;5093423;28;20437;-64
2022/01/22 00:24:20;;;;;;;10.07;2.90;;;;;;;-1.33;62.67;99998.44;5093348;28;20541;-64
2022/01/22 00:26:48;;;;;;;3.70;3.40;;;;;;;-1.25;62.91;100017.81;5093761;28;20425;-64
2022/01/22 00:29:16;;;;;;;3.80;3.60;;;;;;;-1.31;62.94;100012.22;5093505;28;20441;-63
2022/01/22 00:31:42;;;;;;;3.70;3.27;;;;;;;-1.38;63.79;100006.59;5094205;28;20476;-63
2022/01/22 00:34:09;;;;;;;3.40;3.10;;;;;;;-1.27;63.46;100008.41;5093215;28;20468;-64
2022/01/22 00:36:38;;;;;;;5.07;3.40;;;;;;;-1.32;63.21;100003.56;5093702;28;20444;-63
2022/01/22 00:39:04;;;;;;;3.70;3.40;;;;;;;-1.41;62.71;100005.97;5093861;28;20433;-63
2022/01/22 00:41:33;;;;;;;5.07;3.70;;;;;;;-1.52;62.74;99982.44;5093065;28;20497;-64
2022/01/22 00:44:00;;;;;;;6.33;3.73;;;;;;;-1.36;62.40;100001.25;5093043;28;20472;-63
2022/01/22 00:46:26;;;;;;;4.60;2.83;;;;;;;-1.40;61.78;100000.66;5093116;28;21032;-63
2022/01/22 00:48:53;;;;;;;3.47;3.27;;;;;;;-1.45;61.20;100004.53;5092810;28;21011;-63
2022/01/22 00:51:20;;;;;;;3.83;3.43;;;;;;;-1.49;60.69;100016.94;5092821;28;20433;-63
2022/01/22 00:53:47;;;;;;;3.30;3.00;;;;;;;-1.49;60.34;100010.88;5093267;28;20436;-63
2022/01/22 00:56:14;;;;;;;2.70;2.60;;;;;;;-1.49;60.46;100013.50;5092899;28;20467;-63
2022/01/22 00:58:42;;;;;;;3.33;3.13;;;;;;;-1.62;60.49;100012.69;5092781;28;20528;-63
2022/01/22 01:01:09;;;;;;;3.03;2.50;;;;;;;-1.56;60.32;100010.50;5093366;28;20499;-63
2022/01/22 01:03:36;;;;;;;3.30;3.10;;;;;;;-1.54;59.81;100007.78;5093320;28;20477;-63
2022/01/22 01:06:03;;;;;;;3.27;3.17;;;;;;;-1.53;59.91;100012.03;5092652;28;20444;-64
2022/01/22 01:08:32;;;;;;;4.20;3.80;;;;;;;-1.52;60.09;100016.31;5092930;28;20813;-65
2022/01/22 01:11:00;;;;;;;4.00;3.70;;;;;;;-1.67;60.08;99988.75;5092869;28;20433;-64
2022/01/22 01:13:29;;;;;;;4.13;3.80;;;;;;;-1.62;60.28;100002.28;5092476;28;20456;-64
2022/01/22 01:16:02;;;;;;;3.40;3.23;;;;;;;-1.71;60.12;99988.13;5093152;28;20490;-63
2022/01/22 01:32:16;;;;;;;3.23;3.00;;;;;;;-1.72;60.15;100001.28;5092646;28;20456;-64
2022/01/22 01:34:44;;;;;;;3.10;2.90;;;;;;;-1.72;60.06;99996.06;5091656;28;20522;-62
2022/01/22 01:37:15;;;;;;;3.60;3.23;;;;;;;-1.67;59.56;99988.75;5092469;28;20442;-64
2022/01/22 01:39:43;;;;;;;3.50;3.20;;;;;;;-1.64;59.06;99993.72;5092148;28;20944;-64
2022/01/22 01:42:14;;;;;;;3.03;2.93;;;;;;;-1.68;58.97;99987.91;5092680;28;20433;-64
2022/01/22 01:44:41;;;;;;;2.90;2.80;;;;;;;-1.67;58.31;99983.56;5091978;28;20468;-64
2022/01/22 01:47:10;;;;;;;2.70;2.60;;;;;;;-1.75;58.17;99986.66;5092133;28;20433;-62
2022/01/22 01:49:38;;;;;;;3.13;2.57;;;;;;;-1.70;57.71;99979.41;5092320;28;20503;-62
2022/01/22 01:52:11;;;;;;;2.90;2.70;;;;;;;-1.71;57.87;99984.69;5092275;28;20501;-62
2022/01/22 01:54:47;;;;;;;2.97;2.87;;;;;;;-1.73;57.86;99982.19;5091927;28;20465;-61
2022/01/22 01:57:32;;;;;;;3.10;2.90;;;;;;;-1.72;57.71;99980.44;5091995;28;20429;-61
2022/01/22 02:00:00;;;;;;;3.20;3.00;;;;;;;-1.59;56.84;99979.44;5092188;28;20428;-61
2022/01/22 02:02:29;;;;;;;2.73;2.53;;;;;;;-1.66;56.41;99970.44;5092266;28;20528;-64
2022/01/22 02:04:57;;;;;;;2.73;2.60;;;;;;;-1.64;57.26;99973.75;5091993;28;20477;-61
2022/01/22 02:07:24;;;;;;;2.60;2.50;;;;;;;-1.58;56.50;99972.47;5092111;28;20479;-62
2022/01/22 02:09:51;;;;;;;3.17;3.00;;;;;;;-1.60;56.70;99974.34;5092092;28;20436;-64
2022/01/22 02:12:32;;;;;;;2.93;2.83;;;;;;;-1.58;56.40;99969.88;5092178;28;20521;-63
2022/01/22 02:23:36;;;;;;;5.07;3.47;;;;;;;-1.61;56.39;99963.13;5091720;28;20412;-63
2022/01/22 02:26:04;;;;;;;3.60;3.30;;;;;;;-1.55;56.58;99956.66;5091675;28;20924;-63
2022/01/22 02:28:31;;;;;;;5.00;3.40;;;;;;;-1.73;57.58;99945.75;5092083;28;20880;-63
2022/01/22 02:31:05;;;;;;;2.67;2.57;;;;;;;-1.58;57.17;99951.66;5091823;28;20904;-63
2022/01/22 02:33:43;;;;;;;6.40;3.03;;;;;;;-1.54;57.00;99947.88;5091419;28;20476;-64
2022/01/22 02:36:18;;;;;;;3.23;3.13;;;;;;;-1.55;56.90;99957.47;5091744;28;20816;-63
2022/01/22 02:38:51;;;;;;;3.50;3.20;;;;;;;-1.58;57.36;99949.03;5092229;28;20436;-63
2022/01/22 02:41:20;;;;;;;3.87;3.50;;;;;;;-1.55;57.57;99947.03;5091696;28;20491;-63
2022/01/22 02:43:48;;;;;;;3.97;3.73;;;;;;;-1.56;56.94;99942.78;5091704;28;20464;-63
2022/01/22 02:46:16;;;;;;;3.80;3.30;;;;;;;-1.59;57.11;99947.38;5094048;28;20432;-63
2022/01/22 02:48:43;;;;;;;3.23;3.13;;;;;;;-1.61;57.39;99941.44;5095282;28;20528;-65
2022/01/22 02:51:10;;;;;;;3.17;3.07;;;;;;;-1.55;57.08;99941.03;5095265;28;21029;-63
2022/01/22 02:53:36;;;;;;;3.03;2.93;;;;;;;-1.51;57.28;99952.88;5095792;28;20449;-62
2022/01/22 02:56:05;;;;;;;3.13;2.93;;;;;;;-1.53;57.18;99950.38;5095540;28;20429;-61
2022/01/22 02:58:32;;;;;;;4.00;2.93;;;;;;;-1.58;56.60;99946.44;5095407;28;20433;-63
2022/01/22 03:00:59;;;;;;;3.57;3.30;;;;;;;-1.58;57.27;99951.66;5095556;28;20870;-63
2022/01/22 03:03:26;;;;;;;2.87;2.67;;;;;;;-1.61;57.46;99942.28;5095579;28;20490;-63
2022/01/22 03:05:53;;;;;;;3.10;2.80;;;;;;;-1.59;56.83;99935.19;5095053;28;20472;-61
2022/01/22 03:08:24;;;;;;;2.33;2.23;;;;;;;-1.58;56.93;99936.88;5095351;28;20433;-61
2022/01/22 03:10:51;;;;;;;2.80;2.60;;;;;;;-1.65;57.17;99938.22;5094696;28;20425;-64
2022/01/22 03:16:08;;;;;;;3.60;3.40;;;;;;;-1.62;57.51;99934.56;5093360;28;20437;-64
2022/01/22 03:18:45;;;;;;;4.20;3.77;;;;;;;-1.55;57.20;99934.03;5094903;28;20500;-64
2022/01/22 03:21:28;;;;;;;2.97;2.80;;;;;;;-1.63;57.42;99930.31;5095503;28;20440;-61
2022/01/22 03:29:35;;;;;;;4.30;3.43;;;;;;;-1.66;57.69;99933.13;5083903;28;20469;-62
2022/01/22 03:32:02;;;;;;;3.53;3.30;;;;;;;-1.61;57.51;99931.88;5095382;28;20429;-65
2022/01/22 03:34:35;;;;;;;4.67;3.63;;;;;;;-1.65;57.85;99922.59;5095179;28;20880;-62
2022/01/22 03:37:02;;;;;;;4.20;3.47;;;;;;;-1.65;57.90;99932.19;5094552;28;20561;-62
2022/01/22 03:39:29;;;;;;;4.40;3.70;;;;;;;-1.61;57.91;99933.63;5094688;28;20441;-62
2022/01/22 03:41:56;;;;;;;3.27;3.07;;;;;;;-1.62;57.96;99937.19;5094593;28;20499;-62
2022/01/22 03:44:22;;;;;;;3.40;3.20;;;;;;;-1.66;58.20;99933.13;5094173;28;20987;-62
2022/01/22 03:46:50;;;;;;;3.47;3.17;;;;;;;-1.63;57.91;99935.53;5094528;28;20797;-64
2022/01/22 03:49:17;;;;;;;3.93;2.93;;;;;;;-1.67;58.21;99936.69;5094234;28;20429;-62
2022/01/22 03:51:44;;;;;;;3.90;3.60;;;;;;;-1.74;58.40;99930.22;5092047;28;20881;-63
2022/01/22 03:54:12;;;;;;;3.60;3.40;;;;;;;-1.77;58.78;99931.28;5092822;28;20441;-65
2022/01/22 03:56:43;;;;;;;3.50;3.30;;;;;;;-1.80;58.70;99925.47;5092870;28;20467;-63
2022/01/22 03:59:09;;;;;;;3.03;2.83;;;;;;;-1.75;58.63;99929.38;5094687;28;20429;-63
2022/01/22 04:04:26;;;;;;;3.73;3.13;;;;;;;-1.73;58.47;99927.53;5094360;28;20969;-63
2022/01/22 04:09:51;;;;;;;3.70;3.40;;;;;;;-1.79;58.25;99916.72;5093955;28;20433;-63
2022/01/22 04:12:25;;;;;;;2.87;2.77;;;;;;;-1.82;58.69;99911.72;5093923;28;20429;-63
2022/01/22 04:14:57;;;;;;;3.50;3.20;;;;;;;-1.81;58.93;99915.97;5094242;28;20433;-63
2022/01/22 04:17:39;;;;;;;3.53;3.30;;;;;;;-1.78;58.27;99920.97;5093769;28;20421;-63
2022/01/22 04:25:41;;;;;;;4.37;3.97;;;;;;;-1.82;59.34;99932.53;5094145;28;20546;-64
2022/01/22 04:28:08;;;;;;;4.23;3.83;;;;;;;-1.82;59.54;99914.31;5093996;28;20426;-63
2022/01/22 04:30:35;;;;;;;9.00;4.87;;;;;;;-1.92;59.47;99915.91;5093686;28;20445;-63
2022/01/22 04:33:04;;;;;;;5.63;5.03;;;;;;;-1.92;59.67;99915.91;5093197;28;20875;-63
2022/01/22 04:35:33;;;;;;;5.20;4.70;;;;;;;-1.99;59.78;99914.69;5094674;28;20483;-64
2022/01/22 04:37:59;;;;;;;10.00;7.00;;;;;;;-1.98;60.17;99911.97;5093442;28;20437;-63
2022/01/22 04:40:27;;;;;;;5.97;5.20;;;;;;;-2.00;60.15;99913.03;5093451;28;20433;-64
2022/01/22 04:42:54;;;;;;;4.10;3.90;;;;;;;-1.96;59.73;99912.69;5094053;28;20437;-64
2022/01/22 04:45:28;;;;;;;3.77;3.40;;;;;;;-2.00;60.09;99913.84;5093187;28;20999;-65
2022/01/22 04:48:09;;;;;;;5.23;3.47;;;;;;;-2.00;59.85;99913.03;5093039;28;20444;-63
2022/01/22 04:56:05;;;;;;;3.53;3.23;;;;;;;-2.01;60.61;99912.19;5093453;28;20773;-64
2022/01/22 04:58:32;;;;;;;3.73;3.50;;;;;;;-2.05;60.26;99920.28;5092726;28;20936;-64
2022/01/22 05:00:59;;;;;;;3.30;3.10;;;;;;;-2.04;60.33;99907.19;5093181;28;20445;-64
2022/01/22 05:03:25;;;;;;;3.13;2.93;;;;;;;-1.99;59.60;99906.88;5093134;28;20437;-64
2022/01/22 05:05:53;;;;;;;4.00;3.80;;;;;;;-2.02;60.20;99909.69;5092853;28;20472;-63
2022/01/22 05:08:20;;;;;;;3.60;3.00;;;;;;;-1.99;60.27;99904.28;5092517;28;20822;-63
2022/01/22 05:10:47;;;;;;;3.60;3.30;;;;;;;-1.89;58.97;99905.28;5093042;28;20493;-63
2022/01/22 05:13:13;;;;;;;4.83;3.73;;;;;;;-1.91;59.54;99901.97;5092710;28;20433;-63
2022/01/22 05:15:40;;;;;;;4.13;3.30;;;;;;;-1.97;59.32;99903.22;5092624;28;20445;-63
2022/01/22 05:18:08;;;;;;;3.80;3.60;;;;;;;-1.95;58.73;99900.50;5092757;28;20437;-63
2022/01/22 05:20:43;;;;;;;4.40;4.10;;;;;;;-1.93;58.81;99898.63;5093137;28;20429;-63
2022/01/22 05:23:15;;;;;;;3.80;3.60;;;;;;;-1.96;58.63;99904.88;5093267;28;20504;-63
2022/01/22 05:25:46;;;;;;;4.00;3.77;;;;;;;-1.87;58.39;99896.41;5092343;28;20467;-63
2022/01/22 05:28:37;;;;;;;5.30;4.80;;;;;;;-1.83;58.72;99899.66;5092233;28;20516;-63
2022/01/22 05:31:20;;;;;;;4.60;3.53;;;;;;;-1.82;57.87;99901.31;5092735;28;20465;-63
2022/01/22 05:39:21;;;;;;;3.77;3.27;;;;;;;-1.84;58.68;99905.81;5092182;28;20440;-63
2022/01/22 05:41:48;;;;;;;3.70;3.40;;;;;;;-1.84;58.08;99904.00;5092632;28;20425;-63
2022/01/22 05:44:15;;;;;;;4.07;3.70;;;;;;;-1.81;58.42;99903.81;5092410;28;20502;-64
2022/01/22 05:46:41;;;;;;;3.83;3.17;;;;;;;-1.87;58.09;99903.41;5092292;28;20525;-63
2022/01/22 05:49:08;;;;;;;3.57;3.37;;;;;;;-1.84;58.32;99913.63;5091813;28;20429;-63
2022/01/22 05:51:38;;;;;;;6.67;3.03;;;;;;;-1.74;57.94;99909.41;5092425;28;20441;-63
2022/01/22 05:59:40;;;;;;;4.60;4.20;;;;;;;-1.81;58.32;99898.59;5091828;28;20408;-68
2022/01/22 06:02:08;;;;;;;5.70;5.37;;;;;;;-1.78;58.65;99902.75;5092682;28;20486;-67
2022/01/22 06:04:36;;;;;;;12.63;8.27;;;;;;;-1.82;58.66;99896.94;5091860;28;20468;-67
2022/01/22 06:07:04;;;;;;;5.63;5.23;;;;;;;-1.77;58.35;99896.59;5091559;28;20502;-66
2022/01/22 06:09:32;;;;;;;5.07;4.57;;;;;;;-1.68;58.25;99895.94;5091773;28;20441;-68
2022/01/22 06:12:15;;;;;;;9.00;4.57;;;;;;;-1.64;57.97;99893.03;5091606;28;20822;-68
2022/01/22 06:14:42;;;;;;;4.67;4.27;;;;;;;-1.58;57.53;99889.16;5091669;28;20432;-67
2022/01/22 06:17:09;;;;;;;7.97;4.50;;;;;;;-1.50;57.21;99886.81;5091699;28;20445;-67
2022/01/22 06:19:35;;;;;;;5.70;5.17;;;;;;;-1.39;57.09;99885.09;5091844;28;20491;-68
2022/01/22 06:22:02;;;;;;;5.30;5.00;;;;;;;-1.28;56.40;99885.16;5094997;28;20506;-68
2022/01/22 06:24:29;;;;;;;5.17;4.70;;;;;;;-1.27;56.14;99879.00;5095708;28;20817;-68
2022/01/22 06:26:56;;;;;;;6.80;4.83;;;;;;;-1.07;55.55;99880.97;5095485;28;21060;-68
2022/01/22 06:29:24;;;;;;;6.03;5.53;;;;;;;-0.95;55.07;99885.25;5095901;28;20502;-67
2022/01/22 06:31:50;;;;;;;5.27;4.97;;;;;;;-0.77;54.24;99890.88;5096009;28;20519;-67
2022/01/22 06:34:17;;;;;;;6.73;5.37;;;;;;;-0.49;53.88;99887.84;5095766;28;20527;-66
2022/01/22 06:36:44;;;;;;;5.73;4.10;;;;;;;-0.26;53.06;99884.28;5095277;28;20494;-67
2022/01/22 06:39:13;;;;;;;4.13;3.87;;;;;;;0.00;51.00;99885.72;5095415;28;20506;-70
2022/01/22 06:41:45;;;;;;;5.33;4.53;;;;;;;0.28;51.42;99884.38;5095394;28;20448;-75
2022/01/22 06:44:13;;;;;;;5.13;4.50;;;;;;;0.49;50.04;99888.69;5095730;28;20409;-72
2022/01/22 06:46:43;;;;;;;8.17;5.20;;;;;;;0.71;49.08;99878.19;5092952;28;20909;-73
2022/01/22 06:49:10;;;;;;;7.30;5.30;;;;;;;0.78;48.18;99883.75;5094723;28;20913;-72
2022/01/22 06:51:37;;;;;;;5.13;4.63;;;;;;;0.96;47.40;99877.00;5095280;28;20433;-71
2022/01/22 06:54:05;;;;;;;7.60;4.30;;;;;;;0.96;46.83;99883.06;5095386;28;20432;-71
2022/01/22 06:56:32;;;;;;;5.03;4.30;;;;;;;1.16;46.92;99878.81;5095396;28;20447;-71
2022/01/22 06:59:00;;;;;;;6.47;4.63;;;;;;;1.15;46.82;99869.31;5095044;28;21013;-71
2022/01/22 07:01:27;;;;;;;4.73;4.33;;;;;;;1.10;46.91;99874.91;5094279;28;20490;-71
2022/01/22 07:03:56;;;;;;;5.00;4.60;;;;;;;1.36;47.88;99867.50;5091113;28;20958;-70
2022/01/22 07:06:23;;;;;;;5.77;4.33;;;;;;;1.58;46.27;99876.03;5094751;28;20529;-70
2022/01/22 07:08:50;;;;;;;5.67;4.17;;;;;;;1.65;46.04;99879.81;5094743;28;20438;-70
2022/01/22 07:11:18;;;;;;;5.50;4.30;;;;;;;1.40;46.57;99861.06;5095478;28;20490;-70
2022/01/22 07:13:45;;;;;;;7.07;4.83;;;;;;;1.62;45.95;99877.44;5094938;28;20448;-70
2022/01/22 07:16:12;;;;;;;6.70;4.23;;;;;;;1.73;45.61;99884.38;5094694;28;20523;-70
2022/01/22 07:18:39;;;;;;;34.97;12.93;;;;;;;1.62;46.20;99877.44;5094830;28;20437;-70
2022/01/22 07:21:15;;;;;;;34.83;11.40;;;;;;;1.47;45.97;99873.47;5095749;28;20439;-70
2022/01/22 07:24:22;;;;;;;30.00;13.43;;;;;;;1.19;46.98;99879.41;5094547;28;20425;-68
2022/01/22 07:26:42;;;;;;;34.80;14.77;;;;;;;1.16;47.18;99863.94;5094571;28;20892;-69
2022/01/22 07:29:11;;;;;;;32.90;14.13;;;;;;;1.18;47.06;99871.66;5094471;28;20445;-69
2022/01/22 07:31:38;;;;;;;14.57;10.13;;;;;;;1.01;46.87;99865.22;5093729;28;20438;-68
2022/01/22 07:34:05;;;;;;;18.10;6.30;;;;;;;0.93;46.67;99861.59;5094296;28;20471;-68
2022/01/22 07:36:33;;;;;;;6.40;5.73;;;;;;;1.00;47.04;99847.88;5094285;28;20507;-68
2022/01/22 07:39:00;;;;;;;13.93;8.73;;;;;;;1.18;46.40;99851.56;5094527;28;20864;-68
2022/01/22 07:41:27;;;;;;;11.00;7.90;;;;;;;1.41;47.39;99849.63;5094373;28;20474;-69
2022/01/22 07:43:53;;;;;;;6.70;5.37;;;;;;;1.72;47.43;99848.69;5094690;28;20441;-69
2022/01/22 07:46:21;;;;;;;8.63;5.90;;;;;;;2.31;46.68;99836.44;5093622;28;20461;-69
2022/01/22 07:48:48;;;;;;;7.37;5.33;;;;;;;2.33;49.76;99843.19;5093872;28;20520;-68
2022/01/22 07:51:16;;;;;;;10.93;4.77;;;;;;;2.48;45.86;99867.22;5093878;28;20987;-68
2022/01/22 07:53:45;;;;;;;7.70;4.30;;;;;;;2.95;44.77;99841.03;5091033;28;20459;-68
2022/01/22 07:56:11;;;;;;;4.43;3.97;;;;;;;3.16;44.20;99844.31;5093637;28;20448;-68
2022/01/22 07:58:38;;;;;;;5.37;3.83;;;;;;;3.04;44.27;99834.94;5093736;28;20486;-67
2022/01/22 08:01:05;;;;;;;7.43;3.77;;;;;;;3.18;43.90;99836.31;5094178;28;20449;-65
2022/01/22 08:03:32;;;;;;;4.87;4.07;;;;;;;3.50;43.32;99842.84;5093547;28;20491;-65
2022/01/22 08:05:58;;;;;;;7.60;5.20;;;;;;;3.37;43.64;99847.59;5093516;28;20535;-65
2022/01/22 08:08:25;;;;;;;6.17;4.93;;;;;;;3.66;43.22;99843.06;5090716;28;20493;-72
2022/01/22 08:10:53;;;;;;;6.07;4.73;;;;;;;3.53;45.43;99842.56;5093218;28;20961;-72
2022/01/22 08:13:21;;;;;;;16.17;4.60;;;;;;;4.08;56.28;99807.47;5093638;28;20492;-72
2022/01/22 08:15:48;;;;;;;14.77;7.00;;;;;;;5.32;41.47;99835.41;5090717;28;20441;-72
2022/01/22 08:18:14;;;;;;;10.73;5.13;;;;;;;4.76;39.91;99845.47;5093527;28;20662;-71
2022/01/22 08:20:41;;;;;;;4.70;4.30;;;;;;;4.80;39.59;99828.41;5093454;28;20187;-74
2022/01/22 08:23:08;;;;;;;6.57;5.23;;;;;;;4.10;40.80;99810.78;5093349;28;20631;-73
2022/01/22 08:25:35;;;;;;;6.57;4.17;;;;;;;3.94;41.18;99805.34;5093215;28;20187;-72
2022/01/22 08:30:47;;;;;;;6.47;4.67;;;;;;;3.54;42.04;99812.72;5094087;28;20639;-70
2022/01/22 08:36:02;;;;;;;5.23;4.83;;;;;;;3.98;41.06;99811.13;5087360;28;20199;-72
2022/01/22 08:38:32;;;;;;;6.20;4.23;;;;;;;4.08;41.54;99806.63;5091532;28;20249;-72
2022/01/22 08:40:59;;;;;;;5.47;4.87;;;;;;;4.20;41.18;99803.66;5092654;28;20194;-72
2022/01/22 08:43:28;;;;;;;5.67;4.30;;;;;;;4.35;41.85;99796.94;5092679;28;21027;-72
2022/01/22 08:45:55;;;;;;;7.90;4.50;;;;;;;4.39;41.30;99790.41;5092808;28;20223;-72
2022/01/22 08:48:23;;;;;;;8.50;4.20;;;;;;;4.27;41.38;99788.97;5093164;28;20248;-72
2022/01/22 08:50:50;;;;;;;6.60;4.03;;;;;;;4.10;41.35;99783.66;5094248;28;20273;-72
2022/01/22 08:53:16;;;;;;;6.03;4.10;;;;;;;3.94;42.17;99779.06;5092575;28;20323;-72
2022/01/22 08:55:43;;;;;;;11.03;5.20;;;;;;;4.88;41.37;99783.75;5093026;28;20199;-72
2022/01/22 08:58:10;;;;;;;7.80;5.20;;;;;;;4.99;39.94;99772.97;5092742;28;20441;-72
2022/01/22 09:00:39;;;;;;;7.43;5.87;;;;;;;5.23;39.47;99781.84;5092520;28;20217;-72
2022/01/22 09:03:06;;;;;;;17.43;5.33;;;;;;;5.64;39.22;99775.81;5092452;28;20195;-72
2022/01/22 09:05:35;;;;;;;13.13;5.97;;;;;;;5.43;39.41;99766.66;5092568;28;20192;-72
2022/01/22 09:08:04;;;;;;;11.37;6.40;;;;;;;5.31;39.38;99766.09;5093504;28;20195;-72
2022/01/22 09:10:30;;;;;;;14.90;7.80;;;;;;;5.15;39.69;99767.81;5092661;28;20191;-72
2022/01/22 09:12:57;;;;;;;7.17;6.47;;;;;;;5.01;39.91;99761.31;5092686;28;20252;-73
2022/01/22 09:15:24;;;;;;;10.87;6.20;;;;;;;4.98;40.07;99766.03;5092483;28;20191;-72
2022/01/22 09:17:53;;;;;;;5.70;5.20;;;;;;;4.87;39.93;99759.22;5092182;28;20210;-71
2022/01/22 09:20:32;;;;;;;5.67;5.20;;;;;;;4.97;40.83;99749.44;5092291;28;20221;-77
2022/01/22 09:22:59;;;;;;;7.30;4.20;;;;;;;4.50;41.12;99737.56;5092431;28;20278;-72
2022/01/22 09:25:26;;;;;;;8.23;5.13;;;;;;;4.48;41.60;99733.41;5092595;28;20191;-72
2022/01/22 09:27:53;;;;;;;21.70;6.07;;;;;;;5.04;40.55;99737.31;5092910;28;20231;-72
2022/01/22 09:30:19;;;;;;;4.83;4.40;;;;;;;4.47;40.83;99737.88;5092567;28;20195;-71
2022/01/22 09:32:46;;;;;;;5.77;3.70;;;;;;;4.43;40.19;99733.91;5092199;28;20191;-73
2022/01/22 09:35:14;;;;;;;4.43;3.67;;;;;;;4.55;41.04;99726.59;5092728;28;20227;-73
2022/01/22 09:37:41;;;;;;;4.70;4.20;;;;;;;5.06;41.23;99722.19;5092405;28;20248;-74
2022/01/22 09:40:09;;;;;;;10.03;3.97;;;;;;;5.22;44.89;99687.22;5092474;28;20248;-73
2022/01/22 09:42:36;;;;;;;4.97;3.20;;;;;;;5.41;39.25;99714.16;5091993;28;20712;-73
2022/01/22 09:45:04;;;;;;;5.67;3.27;;;;;;;5.67;38.99;99709.63;5092260;28;20674;-73
2022/01/22 09:47:32;;;;;;;5.53;3.23;;;;;;;5.91;37.44;99700.19;5092867;28;20279;-72
2022/01/22 09:49:59;;;;;;;7.77;5.13;;;;;;;6.03;36.92;99702.34;5091670;28;20202;-72
2022/01/22 09:52:27;;;;;;;3.50;3.13;;;;;;;5.86;35.84;99689.28;5092331;28;20619;-72
2022/01/22 09:54:54;;;;;;;3.37;2.87;;;;;;;5.65;36.19;99692.34;5090949;28;20197;-77
2022/01/22 09:57:21;;;;;;;3.53;3.20;;;;;;;5.47;35.77;99689.78;5092738;28;20229;-79
2022/01/22 09:59:48;;;;;;;12.27;3.20;;;;;;;5.32;35.76;99680.84;5090862;28;20328;-81
2022/01/22 10:02:17;;;;;;;3.60;3.33;;;;;;;5.34;35.34;99660.44;5092320;28;20199;-78
2022/01/22 10:04:48;;;;;;;6.40;3.67;;;;;;;5.44;35.85;99663.75;5091744;28;20195;-78
2022/01/22 10:07:21;;;;;;;4.60;3.40;;;;;;;5.42;36.33;99639.41;5092165;28;20204;-77
2022/01/22 10:10:00;;;;;;;2.87;2.67;;;;;;;5.77;35.95;99654.97;5091535;28;20199;-78
2022/01/22 10:12:29;;;;;;;6.43;2.67;;;;;;;5.74;35.41;99655.31;5091910;28;20236;-78
2022/01/22 10:15:09;;;;;;;13.70;4.10;;;;;;;5.57;35.27;99648.31;5092231;28;20607;-67
2022/01/22 10:17:49;;;;;;;4.10;3.80;;;;;;;5.54;35.66;99643.41;5092249;28;20194;-68
2022/01/22 10:20:35;;;;;;;2.87;2.67;;;;;;;5.41;36.35;99639.56;5092113;28;20188;-67
2022/01/22 10:23:03;;;;;;;2.40;2.30;;;;;;;5.18;35.55;99636.69;5091813;28;20256;-68
2022/01/22 10:25:35;;;;;;;32.27;22.10;;;;;;;6.39;90.05;99569.16;5091973;28;20253;-63
2022/01/22 10:28:04;;;;;;;3.37;3.10;;;;;;;7.28;53.52;99620.72;5091967;28;20222;-70
2022/01/22 10:30:37;;;;;;;4.43;3.87;;;;;;;7.11;35.86;99610.38;5090657;28;20287;-72
2022/01/22 10:33:27;;;;;;;3.67;3.37;;;;;;;6.83;34.79;99609.16;5091816;28;20568;-76
2022/01/22 10:35:56;;;;;;;5.60;3.80;;;;;;;6.54;34.37;99606.25;5091845;28;20189;-68
2022/01/22 10:38:22;;;;;;;3.33;3.13;;;;;;;6.14;35.63;99608.91;5091755;28;20195;-69
2022/01/22 10:40:56;;;;;;;9.40;3.40;;;;;;;6.16;35.44;99594.56;5091900;28;20193;-69
2022/01/22 10:43:29;;;;;;;5.03;3.10;;;;;;;5.59;36.39;99588.41;5091989;28;20184;-68
2022/01/22 10:46:07;;;;;;;3.80;3.50;;;;;;;5.76;36.67;99581.38;5092268;28;20650;-68
2022/01/22 10:48:34;;;;;;;3.80;3.50;;;;;;;5.64;36.64;99580.84;5091906;28;20195;-68
2022/01/22 10:51:04;;;;;;;5.87;3.50;;;;;;;4.90;37.98;99589.69;5091682;28;20209;-69
2022/01/22 10:53:39;;;;;;;3.37;2.57;;;;;;;4.93;35.83;99590.19;5090930;28;20196;-68
2022/01/22 10:56:08;;;;;;;2.97;2.67;;;;;;;4.86;34.57;99594.41;5091263;28;20673;-70
2022/01/22 10:58:35;;;;;;;2.90;2.70;;;;;;;4.99;34.82;99589.53;5091128;28;20245;-69
2022/01/22 11:01:04;;;;;;;7.53;3.30;;;;;;;5.11;35.71;99588.28;5091481;28;20199;-75
2022/01/22 11:03:32;;;;;;;3.27;3.07;;;;;;;4.82;36.25;99585.19;5091220;28;20655;-75
2022/01/22 11:06:05;;;;;;;6.17;3.30;;;;;;;4.66;37.14;99589.56;5091497;28;20195;-67
2022/01/22 11:08:32;;;;;;;4.10;2.90;;;;;;;4.45;37.77;99584.66;5094967;28;20657;-73
2022/01/22 11:10:59;;;;;;;3.20;3.00;;;;;;;4.39;38.50;99573.94;5094757;28;20245;-73
2022/01/22 11:13:27;;;;;;;3.93;3.50;;;;;;;4.37;38.20;99576.72;5095122;28;20612;-72
2022/01/22 11:15:55;;;;;;;3.33;3.00;;;;;;;4.50;38.27;99561.34;5094780;28;20249;-72
2022/01/22 11:18:22;;;;;;;6.03;2.93;;;;;;;4.56;37.86;99571.25;5095050;28;20199;-73
2022/01/22 11:20:51;;;;;;;3.43;3.20;;;;;;;4.12;38.43;99567.03;5094536;28;20252;-72
2022/01/22 11:23:18;;;;;;;4.27;4.00;;;;;;;4.23;37.67;99558.88;5094953;28;20187;-72
2022/01/22 11:25:45;;;;;;;3.50;3.00;;;;;;;4.19;38.04;99556.72;5094945;28;20278;-75
2022/01/22 11:28:14;;;;;;;3.33;2.90;;;;;;;4.23;36.72;99553.63;5094407;28;20258;-73
2022/01/22 11:30:45;;;;;;;4.37;3.20;;;;;;;4.11;37.24;99533.84;5094640;28;20187;-72
2022/01/22 11:33:17;;;;;;;2.90;2.70;;;;;;;4.16;37.05;99557.84;5092870;28;20489;-70
2022/01/22 11:35:54;;;;;;;3.40;3.20;;;;;;;4.25;37.80;99551.66;5094689;28;20266;-71
2022/01/22 11:38:28;;;;;;;4.90;3.30;;;;;;;4.23;37.95;99545.75;5095223;28;20236;-72
2022/01/22 11:41:09;;;;;;;4.23;3.83;;;;;;;4.26;37.80;99542.81;5094925;28;20186;-72
2022/01/22 11:44:08;;;;;;;3.07;2.70;;;;;;;4.34;38.38;99545.47;5094267;28;20191;-73
2022/01/22 11:46:40;;;;;;;4.30;3.20;;;;;;;4.15;36.98;99532.56;5094306;28;20203;-74
2022/01/22 11:49:25;;;;;;;8.43;3.27;;;;;;;4.03;37.27;99531.16;5094990;28;20186;-74
2022/01/22 11:51:53;;;;;;;4.03;3.73;;;;;;;4.16;37.83;99535.97;5094228;28;20256;-71
2022/01/22 11:54:23;;;;;;;4.93;3.00;;;;;;;4.41;36.80;99535.19;5094283;28;20188;-67
2022/01/22 11:56:53;;;;;;;4.53;3.70;;;;;;;4.21;36.66;99539.81;5094690;28;20252;-68
2022/01/22 11:59:28;;;;;;;3.33;3.13;;;;;;;4.11;38.16;99533.84;5094017;28;20194;-67
2022/01/22 12:01:59;;;;;;;3.70;3.03;;;;;;;4.35;37.96;99528.72;5094309;28;20248;-67
2022/01/22 12:04:28;;;;;;;8.00;3.83;;;;;;;4.54;37.42;99525.84;5094105;28;20270;-68
2022/01/22 12:07:15;;;;;;;4.40;4.00;;;;;;;4.60;36.78;99530.50;5093937;28;20219;-66
2022/01/22 12:09:52;;;;;;;4.37;3.70;;;;;;;4.40;37.12;99530.88;5094149;28;20203;-67
2022/01/22 12:15:10;;;;;;;3.77;3.40;;;;;;;4.54;34.86;99525.84;5093902;28;20716;-66
2022/01/22 12:18:10;;;;;;;5.13;4.40;;;;;;;4.74;35.13;99527.28;5093185;28;20254;-69
2022/01/22 12:24:00;;;;;;;3.33;3.07;;;;;;;4.10;35.93;99519.06;5093676;28;20285;-68
2022/01/22 12:26:49;;;;;;;6.10;2.73;;;;;;;4.34;35.38;99515.75;5073896;28;20739;-67
2022/01/22 12:29:37;;;;;;;5.77;3.60;;;;;;;4.32;34.88;99531.66;5092929;28;20630;-68
2022/01/22 12:32:20;;;;;;;4.07;3.73;;;;;;;4.51;35.17;99520.94;5093667;28;20242;-67
2022/01/22 12:34:59;;;;;;;3.83;3.53;;;;;;;4.58;34.60;99523.75;5093037;28;20234;-68
2022/01/22 12:37:29;;;;;;;3.17;2.93;;;;;;;4.31;34.74;99514.25;5093183;28;20194;-68
2022/01/22 12:39:56;;;;;;;3.13;2.93;;;;;;;4.21;35.51;99524.03;5093535;28;20191;-67
2022/01/22 12:42:31;;;;;;;3.70;3.40;;;;;;;4.11;35.19;99528.59;5093174;28;20192;-68
2022/01/22 12:44:59;;;;;;;6.97;3.27;;;;;;;3.97;35.57;99526.50;5093067;28;20183;-67
2022/01/22 12:47:27;;;;;;;4.10;3.67;;;;;;;3.95;35.48;99519.75;5092724;28;20265;-67
2022/01/22 12:50:01;;;;;;;5.50;3.07;;;;;;;4.14;34.78;99519.56;5093303;28;20191;-67
2022/01/22 12:52:28;;;;;;;3.90;3.60;;;;;;;3.97;34.76;99515.97;5092910;28;20561;-68
2022/01/22 12:54:58;;;;;;;9.10;3.40;;;;;;;3.98;36.31;99522.91;5092717;28;20187;-68
2022/01/22 12:57:27;;;;;;;3.93;3.60;;;;;;;4.04;35.97;99517.03;5093415;28;20188;-67
2022/01/22 13:00:01;;;;;;;3.93;2.67;;;;;;;3.80;34.94;99524.72;5092797;28;20217;-67